createdAt,value
2023-06-17T00:08:17.998Z,76.35
2023-06-17T00:18:40.272Z,76.76
2023-06-17T00:29:02.140Z,76.70
2023-06-17T00:39:23.640Z,76.22
2023-06-17T00:49:46.791Z,77.42
2023-06-17T01:00:11.816Z,79.76
2023-06-17T01:10:57.136Z,78.29
2023-06-17T01:21:23.311Z,80.91
2023-06-17T01:31:49.826Z,78.14
2023-06-17T01:42:19.974Z,77.27
2023-06-17T01:52:41.413Z,81.97
2023-06-17T02:03:03.012Z,86.15
2023-06-17T02:13:24.574Z,84.33
2023-06-17T02:23:50.226Z,83.66
2023-06-17T02:34:12.002Z,80.29
2023-06-17T02:44:33.428Z,79.09
2023-06-17T02:54:54.818Z,77.51
2023-06-17T03:05:17.826Z,81.89
2023-06-17T03:15:40.018Z,79.99
2023-06-17T03:26:01.597Z,82.77
2023-06-17T03:36:26.274Z,79.94
2023-06-17T03:46:47.805Z,80.41
2023-06-17T03:57:09.271Z,82.71
2023-06-17T04:07:30.684Z,82.65
2023-06-17T04:17:52.136Z,80.58
2023-06-17T04:28:14.017Z,79.08
2023-06-17T04:38:37.772Z,78.91
2023-06-17T04:48:59.501Z,78.59
2023-06-17T04:59:21.276Z,79.03
2023-06-17T05:09:42.716Z,79.75
2023-06-17T05:20:04.671Z,79.98
2023-06-17T05:30:26.153Z,80.81
2023-06-17T05:40:47.931Z,80.88
2023-06-17T05:51:09.367Z,79.26
2023-06-17T06:01:30.915Z,80.45
2023-06-17T06:11:52.566Z,77.38
2023-06-17T06:22:14.025Z,76.93
2023-06-17T06:32:35.515Z,76.92
2023-06-17T06:42:56.967Z,77.99
2023-06-17T06:53:20.385Z,76.44
2023-06-17T07:03:42.285Z,78.78
2023-06-17T07:14:03.710Z,75.81
2023-06-17T07:24:25.148Z,75.53
2023-06-17T07:34:46.839Z,73.96
2023-06-17T07:45:08.552Z,75.64
2023-06-17T07:55:30.319Z,75.13
2023-06-17T08:05:51.860Z,77.69
2023-06-17T08:16:13.331Z,74.16
2023-06-17T08:26:34.841Z,71.97
2023-06-17T08:36:56.374Z,71.55
2023-06-17T08:47:18.030Z,71.10
2023-06-17T08:57:40.849Z,70.81
2023-06-17T09:08:02.380Z,72.12
2023-06-17T09:18:23.841Z,71.16
2023-06-17T09:28:45.464Z,69.74
2023-06-17T09:39:07.212Z,67.28
2023-06-17T09:49:31.311Z,68.11
2023-06-17T09:59:56.092Z,66.32
2023-06-17T10:10:19.249Z,66.93
2023-06-17T10:20:41.468Z,65.14
2023-06-17T10:31:19.368Z,65.02
2023-06-17T10:41:40.747Z,63.85
2023-06-17T10:52:03.061Z,62.68
2023-06-17T11:02:24.615Z,61.72
2023-06-17T11:12:48.910Z,61.79
2023-06-17T11:23:12.242Z,59.56
2023-06-17T11:33:36.100Z,58.94
2023-06-17T11:43:58.581Z,57.73
2023-06-17T11:54:23.061Z,58.13
2023-06-17T12:04:45.493Z,59.32
2023-06-17T12:15:15.779Z,60.49
2023-06-17T12:25:38.821Z,59.33
2023-06-17T12:36:00.595Z,60.56
2023-06-17T12:46:22.120Z,60.18
2023-06-17T12:56:43.678Z,59.19
2023-06-17T13:07:05.391Z,57.98
2023-06-17T13:17:27.052Z,57.48
2023-06-17T13:27:48.568Z,57.59
2023-06-17T13:38:10.016Z,58.23
2023-06-17T13:48:32.441Z,56.52
2023-06-17T13:58:54.356Z,57.98
2023-06-17T14:09:15.914Z,57.86
2023-06-17T14:19:37.367Z,55.43
2023-06-17T14:29:58.773Z,56.85
2023-06-17T14:40:21.104Z,57.08
2023-06-17T14:50:42.707Z,57.18
2023-06-17T15:01:04.352Z,57.89
2023-06-17T15:11:26.348Z,58.68
2023-06-17T15:21:48.216Z,59.42
2023-06-17T15:32:10.625Z,59.02
2023-06-17T15:42:32.035Z,59.39
2023-06-17T15:52:53.452Z,60.24
2023-06-17T16:03:26.317Z,60.35
2023-06-17T16:13:48.246Z,61.25
2023-06-17T16:24:11.890Z,60.98
2023-06-17T16:34:33.376Z,61.41
2023-06-17T16:44:54.765Z,61.49
2023-06-17T16:55:16.383Z,61.12
2023-06-17T17:05:38.064Z,61.82
2023-06-17T17:15:59.723Z,62.40
2023-06-17T17:26:21.380Z,62.84
2023-06-17T17:36:43.022Z,63.19
2023-06-17T17:47:04.872Z,63.07
2023-06-17T17:57:27.255Z,63.98
2023-06-17T18:07:50.084Z,65.57
2023-06-17T18:18:11.878Z,65.66
2023-06-17T18:28:33.556Z,66.04
2023-06-17T18:38:55.035Z,67.60
2023-06-17T18:49:21.109Z,68.03
2023-06-17T18:59:42.548Z,69.88
2023-06-17T19:10:04.321Z,70.09
2023-06-17T19:20:25.802Z,69.82
2023-06-17T19:30:47.990Z,70.21
2023-06-17T19:41:09.439Z,70.89
2023-06-17T19:51:31.033Z,71.46
2023-06-17T20:01:52.647Z,71.79
2023-06-17T20:12:14.840Z,71.96
2023-06-17T20:22:36.318Z,72.71
2023-06-17T20:32:57.938Z,75.46
2023-06-17T20:43:19.534Z,75.78
2023-06-17T20:53:40.970Z,76.24
2023-06-17T21:04:02.493Z,76.76
2023-06-17T21:14:25.127Z,77.72
2023-06-17T21:24:46.587Z,78.35
2023-06-17T21:35:08.121Z,79.62
2023-06-17T21:45:29.547Z,79.35
2023-06-17T21:55:51.003Z,79.77
2023-06-17T22:06:12.518Z,78.69
2023-06-17T22:16:33.962Z,80.13
2023-06-17T22:26:55.430Z,81.65
2023-06-17T22:37:16.852Z,82.95
2023-06-17T22:47:38.465Z,82.04
2023-06-17T22:57:59.940Z,82.89
2023-06-17T23:08:21.404Z,82.35
2023-06-17T23:18:42.833Z,83.62
2023-06-17T23:29:04.273Z,83.46
2023-06-17T23:39:26.126Z,83.80
2023-06-17T23:49:47.698Z,84.08
